createdAt,value
2017-01-26T00:00:36.198Z,0
2017-01-26T00:01:17.648Z,0
2017-01-26T00:01:59.469Z,0
2017-01-26T00:02:41.214Z,0
2017-01-26T00:03:22.874Z,0
2017-01-26T00:04:04.437Z,0
2017-01-26T00:04:46.016Z,0
2017-01-26T00:07:01.281Z,0
2017-01-26T00:09:21.834Z,0
2017-01-26T00:10:03.520Z,0
2017-01-26T00:12:24.153Z,0
2017-01-26T00:13:05.751Z,0
2017-01-26T00:15:41.949Z,0
2017-01-26T00:17:57.227Z,0
2017-01-26T00:18:38.926Z,0
2017-01-26T00:19:20.648Z,0
2017-01-26T00:20:02.332Z,0
2017-01-26T00:20:44.085Z,0
2017-01-26T00:21:25.731Z,0
2017-01-26T00:22:07.502Z,0
2017-01-26T00:22:49.109Z,0
2017-01-26T00:23:30.822Z,0
2017-01-26T00:24:12.473Z,0
2017-01-26T00:24:54.147Z,0
2017-01-26T00:25:35.883Z,0
2017-01-26T00:26:17.475Z,0
2017-01-26T00:28:38.178Z,0
2017-01-26T00:29:19.748Z,0
2017-01-26T00:31:19.815Z,0
2017-01-26T00:32:01.555Z,0
2017-01-26T00:32:43.264Z,0
2017-01-26T00:33:24.972Z,0
2017-01-26T00:34:06.753Z,0
2017-01-26T00:34:48.489Z,0
2017-01-26T00:35:30.238Z,0
2017-01-26T00:36:11.879Z,0
2017-01-26T00:36:53.616Z,0
2017-01-26T00:37:35.347Z,0
2017-01-26T00:39:35.510Z,0
2017-01-26T00:40:17.274Z,0
2017-01-26T00:42:48.339Z,0
2017-01-26T00:45:18.852Z,0
2017-01-26T00:46:00.462Z,0
2017-01-26T00:46:42.178Z,0
2017-01-26T00:47:23.716Z,0
2017-01-26T00:48:05.391Z,0
2017-01-26T00:48:46.980Z,0
2017-01-26T00:49:28.680Z,0
2017-01-26T00:53:38.801Z,0
2017-01-26T00:54:20.567Z,0
2017-01-26T00:55:02.400Z,0
2017-01-26T00:55:44.004Z,0
2017-01-26T00:56:25.616Z,0
2017-01-26T00:57:07.370Z,0
2017-01-26T00:59:28.130Z,0
2017-01-26T01:01:28.128Z,0
2017-01-26T01:02:09.803Z,0
2017-01-26T01:02:51.472Z,0
2017-01-26T01:03:32.902Z,0
2017-01-26T01:04:14.668Z,0
2017-01-26T01:04:56.735Z,0
2017-01-26T01:05:38.391Z,0
2017-01-26T01:06:20.013Z,0
2017-01-26T01:07:01.699Z,0
2017-01-26T01:07:43.423Z,0
2017-01-26T01:08:25.201Z,0
2017-01-26T01:09:06.994Z,0
2017-01-26T01:09:48.721Z,0
2017-01-26T01:10:30.428Z,0
2017-01-26T01:11:12.112Z,0
2017-01-26T01:11:53.880Z,0
2017-01-26T01:14:24.966Z,0
2017-01-26T01:15:06.688Z,0
2017-01-26T01:15:48.444Z,0
2017-01-26T01:16:30.121Z,0
2017-01-26T01:17:11.543Z,0
2017-01-26T01:17:53.313Z,0
2017-01-26T01:20:29.884Z,0
2017-01-26T01:21:11.617Z,0
2017-01-26T01:21:53.243Z,0
2017-01-26T01:22:35.004Z,0
2017-01-26T01:25:11.266Z,0
2017-01-26T01:27:42.381Z,0
2017-01-26T01:28:24.174Z,0
2017-01-26T01:29:05.922Z,0
2017-01-26T01:29:47.584Z,0
2017-01-26T01:30:29.312Z,0
2017-01-26T01:33:05.578Z,0
2017-01-26T01:33:47.256Z,0
2017-01-26T01:34:28.899Z,0
2017-01-26T01:35:10.635Z,0
2017-01-26T01:35:52.407Z,0
2017-01-26T01:36:34.155Z,0
2017-01-26T01:37:15.845Z,0
2017-01-26T01:37:57.620Z,0
2017-01-26T01:38:39.380Z,0
2017-01-26T01:39:21.057Z,0
2017-01-26T01:40:02.713Z,0
2017-01-26T01:40:44.442Z,0
2017-01-26T01:41:25.989Z,0
2017-01-26T01:42:07.729Z,0
2017-01-26T01:42:49.360Z,0
2017-01-26T01:43:31.205Z,0
2017-01-26T01:44:12.983Z,0
2017-01-26T01:44:54.611Z,0
2017-01-26T01:45:36.348Z,0
2017-01-26T01:50:01.916Z,0
2017-01-26T01:50:43.637Z,0
2017-01-26T01:51:26.888Z,0
2017-01-26T01:52:08.563Z,0
2017-01-26T01:52:50.191Z,0
2017-01-26T01:53:31.915Z,0
2017-01-26T01:54:13.546Z,0
2017-01-26T01:56:34.104Z,0
2017-01-26T01:57:15.708Z,0
2017-01-26T01:59:36.016Z,0
2017-01-26T02:00:16.557Z,0
2017-01-26T02:00:57.075Z,0
2017-01-26T02:01:37.603Z,0
2017-01-26T02:02:18.134Z,0
2017-01-26T02:02:58.666Z,0
2017-01-26T02:03:39.179Z,0
2017-01-26T02:04:19.706Z,0
2017-01-26T02:05:00.247Z,0
2017-01-26T02:05:40.770Z,0
2017-01-26T02:06:21.296Z,0
2017-01-26T02:07:01.812Z,0
2017-01-26T02:07:42.347Z,0
2017-01-26T02:08:22.881Z,0
2017-01-26T02:09:03.413Z,0
2017-01-26T02:09:43.944Z,0
2017-01-26T02:10:24.465Z,0
2017-01-26T02:11:05.020Z,0
2017-01-26T02:11:45.550Z,0
2017-01-26T02:12:26.068Z,0
2017-01-26T02:13:06.602Z,0
2017-01-26T02:13:47.132Z,0
2017-01-26T02:14:27.655Z,0
2017-01-26T02:15:08.186Z,0
2017-01-26T02:15:48.719Z,0
2017-01-26T02:16:29.245Z,0
2017-01-26T02:17:09.768Z,0
2017-01-26T02:17:50.303Z,0
2017-01-26T02:18:30.824Z,0
2017-01-26T02:19:11.362Z,0
2017-01-26T02:19:51.868Z,0
2017-01-26T02:20:32.393Z,0
2017-01-26T02:21:12.924Z,0
2017-01-26T02:21:53.471Z,0
2017-01-26T02:22:33.999Z,0
2017-01-26T02:23:14.521Z,0
2017-01-26T02:23:55.071Z,0
2017-01-26T02:24:35.616Z,0
2017-01-26T02:25:16.143Z,0
2017-01-26T02:25:56.673Z,0
2017-01-26T02:26:37.212Z,0
2017-01-26T02:27:17.731Z,0
2017-01-26T02:27:58.261Z,0
2017-01-26T02:28:38.777Z,0
2017-01-26T02:29:19.304Z,0
2017-01-26T02:29:59.836Z,0
2017-01-26T02:30:40.365Z,0
2017-01-26T02:31:20.893Z,0
2017-01-26T02:32:01.429Z,0
2017-01-26T02:32:41.970Z,0
2017-01-26T02:33:22.483Z,0
2017-01-26T02:34:03.013Z,0
2017-01-26T02:34:43.546Z,0
2017-01-26T02:35:24.080Z,0
2017-01-26T02:36:04.605Z,0
2017-01-26T02:36:45.145Z,0
2017-01-26T02:37:25.665Z,0
2017-01-26T02:38:06.225Z,0
2017-01-26T02:38:46.725Z,0
2017-01-26T02:39:27.248Z,0
2017-01-26T02:40:07.779Z,0
2017-01-26T02:40:48.314Z,0
2017-01-26T02:41:28.851Z,0
2017-01-26T02:42:09.393Z,0
2017-01-26T02:42:49.909Z,0
2017-01-26T02:43:30.431Z,0
2017-01-26T02:44:10.940Z,0
2017-01-26T02:44:51.486Z,0
2017-01-26T02:45:32.030Z,0
2017-01-26T02:46:12.525Z,0
2017-01-26T02:46:53.060Z,0
2017-01-26T02:47:33.583Z,0
2017-01-26T02:48:14.105Z,0
2017-01-26T02:48:54.633Z,0
2017-01-26T02:49:35.169Z,0
2017-01-26T02:50:15.695Z,0
2017-01-26T02:50:56.227Z,0
2017-01-26T02:51:36.749Z,0
2017-01-26T02:52:17.281Z,0
2017-01-26T02:52:57.812Z,0
2017-01-26T02:53:38.340Z,0
2017-01-26T02:54:18.876Z,0
2017-01-26T02:54:59.402Z,0
2017-01-26T02:55:39.933Z,0
2017-01-26T02:56:20.453Z,0
2017-01-26T02:57:00.986Z,0
2017-01-26T02:57:41.503Z,0
2017-01-26T02:58:22.048Z,0
2017-01-26T02:59:02.550Z,0
2017-01-26T02:59:43.086Z,0
2017-01-26T03:00:23.602Z,0
2017-01-26T03:01:04.129Z,0
2017-01-26T03:01:44.654Z,0
2017-01-26T03:02:25.190Z,0
2017-01-26T03:03:05.698Z,0
2017-01-26T03:03:46.225Z,0
2017-01-26T03:04:26.746Z,0
2017-01-26T03:05:07.262Z,0
2017-01-26T03:05:47.789Z,0
2017-01-26T03:06:28.319Z,0
2017-01-26T03:07:08.876Z,0
2017-01-26T03:07:49.398Z,0
2017-01-26T03:08:29.944Z,0
2017-01-26T03:09:10.449Z,0
2017-01-26T03:09:50.980Z,0
2017-01-26T03:10:31.499Z,0
2017-01-26T03:11:12.034Z,0
2017-01-26T03:11:52.561Z,0
2017-01-26T03:12:33.089Z,0
2017-01-26T03:13:13.630Z,0
2017-01-26T03:13:54.148Z,0
2017-01-26T03:14:34.705Z,0
2017-01-26T03:15:15.217Z,0
2017-01-26T03:15:55.743Z,0
2017-01-26T03:16:36.281Z,0
2017-01-26T03:17:16.799Z,0
2017-01-26T03:17:57.319Z,0
2017-01-26T03:18:37.836Z,0
2017-01-26T03:19:18.348Z,0
2017-01-26T03:19:58.881Z,0
2017-01-26T03:20:39.415Z,0
2017-01-26T03:21:19.944Z,0
2017-01-26T03:22:00.466Z,0
2017-01-26T03:22:40.992Z,0
2017-01-26T03:23:21.519Z,0
2017-01-26T03:24:02.036Z,0
2017-01-26T03:24:42.563Z,0
2017-01-26T03:25:23.094Z,0
2017-01-26T03:26:03.612Z,0
2017-01-26T03:26:44.149Z,0
2017-01-26T03:27:24.687Z,0
2017-01-26T03:28:05.210Z,0
2017-01-26T03:28:45.775Z,0
2017-01-26T03:29:26.279Z,0
2017-01-26T03:30:06.801Z,0
2017-01-26T03:30:47.336Z,0
2017-01-26T03:31:27.867Z,0
2017-01-26T03:32:08.397Z,0
2017-01-26T03:32:48.924Z,0
2017-01-26T03:33:29.452Z,0
2017-01-26T03:34:09.975Z,0
2017-01-26T03:34:50.518Z,0
2017-01-26T03:35:31.054Z,0
2017-01-26T03:36:11.571Z,0
2017-01-26T03:36:52.099Z,0
2017-01-26T03:37:32.644Z,0
2017-01-26T03:38:13.162Z,0
2017-01-26T03:38:53.693Z,0
2017-01-26T03:39:34.226Z,0
2017-01-26T03:40:14.757Z,0
2017-01-26T03:40:55.278Z,0
2017-01-26T03:41:35.827Z,0
2017-01-26T03:42:16.360Z,0
2017-01-26T03:42:56.876Z,0
2017-01-26T03:43:37.406Z,0
2017-01-26T03:44:17.948Z,0
2017-01-26T03:44:58.477Z,0
2017-01-26T03:45:38.995Z,0
2017-01-26T03:46:19.519Z,0
2017-01-26T03:47:00.046Z,0
2017-01-26T03:47:40.575Z,0
2017-01-26T03:48:21.119Z,0
2017-01-26T03:49:01.646Z,0
2017-01-26T03:49:42.178Z,0
2017-01-26T03:50:22.709Z,0
2017-01-26T03:51:03.253Z,0
2017-01-26T03:51:43.765Z,0
2017-01-26T03:52:24.309Z,0
2017-01-26T03:53:04.822Z,0
2017-01-26T03:53:45.352Z,0
2017-01-26T03:54:25.883Z,0
2017-01-26T03:55:06.432Z,0
2017-01-26T03:55:46.933Z,0
2017-01-26T03:56:27.462Z,0
2017-01-26T03:57:08.000Z,0
2017-01-26T03:57:48.534Z,0
2017-01-26T03:58:29.072Z,0
2017-01-26T03:59:09.611Z,0
2017-01-26T03:59:50.137Z,0
2017-01-26T04:00:30.662Z,0
2017-01-26T04:01:11.193Z,0
2017-01-26T04:01:51.720Z,0
2017-01-26T04:02:32.248Z,0
2017-01-26T04:03:12.771Z,0
2017-01-26T04:03:53.300Z,0
2017-01-26T04:04:33.816Z,0
2017-01-26T04:05:14.348Z,0
2017-01-26T04:05:54.859Z,0
2017-01-26T04:06:35.415Z,0
2017-01-26T04:07:15.930Z,0
2017-01-26T04:07:56.478Z,0
2017-01-26T04:08:37.001Z,0
2017-01-26T04:09:17.578Z,0
2017-01-26T04:09:58.113Z,0
2017-01-26T04:10:38.634Z,0
2017-01-26T04:11:19.167Z,0
2017-01-26T04:11:59.700Z,0
2017-01-26T04:12:40.232Z,0
2017-01-26T04:13:20.775Z,0
2017-01-26T04:14:01.304Z,0
2017-01-26T04:14:41.836Z,0
2017-01-26T04:15:22.365Z,0
2017-01-26T04:16:02.884Z,0
2017-01-26T04:16:43.438Z,0
2017-01-26T04:17:23.962Z,0
2017-01-26T04:18:04.487Z,0
2017-01-26T04:18:45.017Z,0
2017-01-26T04:19:25.547Z,0
2017-01-26T04:20:06.080Z,0
2017-01-26T04:20:46.610Z,0
2017-01-26T04:21:27.138Z,0
2017-01-26T04:22:07.715Z,0
2017-01-26T04:22:48.227Z,0
2017-01-26T04:23:28.754Z,0
2017-01-26T04:24:09.294Z,0
2017-01-26T04:24:49.816Z,0
2017-01-26T04:25:30.338Z,0
2017-01-26T04:26:10.870Z,0
2017-01-26T04:26:51.406Z,0
2017-01-26T04:27:31.925Z,0
2017-01-26T04:28:12.444Z,0
2017-01-26T04:28:52.965Z,0
2017-01-26T04:29:33.483Z,0
2017-01-26T04:30:14.007Z,0
2017-01-26T04:30:54.535Z,0
2017-01-26T04:31:35.069Z,0
2017-01-26T04:32:15.588Z,0
2017-01-26T04:32:56.113Z,0
2017-01-26T04:33:36.642Z,0
2017-01-26T04:34:17.169Z,0
2017-01-26T04:34:57.689Z,0
2017-01-26T04:35:38.215Z,0
2017-01-26T04:36:18.750Z,0
2017-01-26T04:36:59.301Z,0
2017-01-26T04:37:39.837Z,0
2017-01-26T04:38:20.374Z,0
2017-01-26T04:39:00.900Z,0
2017-01-26T04:39:41.425Z,0
2017-01-26T04:40:21.949Z,0
2017-01-26T04:41:02.479Z,0
2017-01-26T04:41:42.995Z,0
2017-01-26T04:42:23.542Z,0
2017-01-26T04:43:04.084Z,0
2017-01-26T04:43:44.588Z,0
2017-01-26T04:44:25.128Z,0
2017-01-26T04:45:05.648Z,0
2017-01-26T04:45:46.191Z,0
2017-01-26T04:46:26.705Z,0
2017-01-26T04:47:07.237Z,0
2017-01-26T04:47:47.769Z,0
2017-01-26T04:48:28.306Z,0
2017-01-26T04:49:08.848Z,0
2017-01-26T04:49:49.381Z,0
2017-01-26T04:50:29.894Z,0
2017-01-26T04:51:10.431Z,0
2017-01-26T04:51:50.958Z,0
2017-01-26T04:52:31.475Z,0
2017-01-26T04:53:11.991Z,0
2017-01-26T04:53:52.525Z,0
2017-01-26T04:54:33.058Z,0
2017-01-26T04:55:13.597Z,0
2017-01-26T04:55:54.121Z,0
2017-01-26T04:56:34.655Z,0
2017-01-26T04:57:15.189Z,0
2017-01-26T04:57:55.719Z,0
2017-01-26T04:58:36.265Z,0
2017-01-26T04:59:16.809Z,0
2017-01-26T04:59:57.328Z,0
2017-01-26T05:00:37.874Z,0
2017-01-26T05:01:18.409Z,0
2017-01-26T05:01:58.940Z,0
2017-01-26T05:02:39.460Z,0
2017-01-26T05:03:19.998Z,0
2017-01-26T05:04:00.533Z,0
2017-01-26T05:04:41.066Z,0
2017-01-26T05:05:21.620Z,0
2017-01-26T05:06:02.152Z,0
2017-01-26T05:06:42.689Z,0
2017-01-26T05:07:23.219Z,0
2017-01-26T05:08:03.756Z,0
2017-01-26T05:08:44.265Z,0
2017-01-26T05:09:24.796Z,0
2017-01-26T05:10:05.333Z,0
2017-01-26T05:10:45.861Z,0
2017-01-26T05:11:26.387Z,0
2017-01-26T05:12:06.923Z,0
2017-01-26T05:12:47.449Z,0
2017-01-26T05:13:27.970Z,0
2017-01-26T05:14:08.507Z,0
2017-01-26T05:14:49.042Z,0
2017-01-26T05:15:29.576Z,0
2017-01-26T05:16:10.111Z,0
2017-01-26T05:16:50.647Z,0
2017-01-26T05:17:31.183Z,0
2017-01-26T05:18:11.697Z,0
2017-01-26T05:18:52.220Z,0
2017-01-26T05:19:32.764Z,0
2017-01-26T05:20:13.273Z,0
2017-01-26T05:20:53.793Z,0
2017-01-26T05:21:34.322Z,0
2017-01-26T05:22:14.856Z,0
2017-01-26T05:22:55.383Z,0
2017-01-26T05:23:35.918Z,0
2017-01-26T05:24:16.471Z,0
2017-01-26T05:24:56.994Z,0
2017-01-26T05:25:37.524Z,0
2017-01-26T05:26:18.061Z,0
2017-01-26T05:26:58.577Z,0
2017-01-26T05:27:39.142Z,0
2017-01-26T05:28:19.664Z,0
2017-01-26T05:29:00.185Z,0
2017-01-26T05:29:40.719Z,0
2017-01-26T05:30:21.260Z,0
2017-01-26T05:31:01.792Z,0
2017-01-26T05:31:42.321Z,0
2017-01-26T05:32:22.842Z,0
2017-01-26T05:33:03.351Z,0
2017-01-26T05:33:43.876Z,0
2017-01-26T05:34:24.411Z,0
2017-01-26T05:35:04.933Z,0
2017-01-26T05:35:45.461Z,0
2017-01-26T05:36:25.979Z,0
2017-01-26T05:37:06.510Z,0
2017-01-26T05:37:47.023Z,0
2017-01-26T05:38:27.588Z,0
2017-01-26T05:39:08.105Z,0
2017-01-26T05:39:48.630Z,0
2017-01-26T05:40:29.144Z,0
2017-01-26T05:41:09.670Z,0
2017-01-26T05:41:50.185Z,0
2017-01-26T05:42:30.704Z,0
2017-01-26T05:43:11.232Z,0
2017-01-26T05:43:51.751Z,0
2017-01-26T05:44:32.281Z,0
2017-01-26T05:45:12.834Z,0
2017-01-26T05:45:53.340Z,0
2017-01-26T05:46:33.868Z,0
2017-01-26T05:47:14.400Z,0
2017-01-26T05:47:54.927Z,0
2017-01-26T05:48:35.457Z,0
2017-01-26T05:49:15.988Z,0
2017-01-26T05:49:56.524Z,0
2017-01-26T05:50:37.059Z,0
2017-01-26T05:51:17.585Z,0
2017-01-26T05:51:58.100Z,0
2017-01-26T05:52:38.628Z,0
2017-01-26T05:53:19.163Z,0
2017-01-26T05:53:59.696Z,0
2017-01-26T05:54:40.224Z,0
2017-01-26T05:55:20.752Z,0
2017-01-26T05:56:01.276Z,0
2017-01-26T05:56:41.823Z,0
2017-01-26T05:57:22.340Z,0
2017-01-26T05:58:02.872Z,0
2017-01-26T05:58:43.402Z,0
2017-01-26T05:59:23.934Z,0
2017-01-26T06:00:04.470Z,0
2017-01-26T06:00:44.992Z,0
2017-01-26T06:01:25.584Z,0
2017-01-26T06:02:06.109Z,0
2017-01-26T06:02:46.639Z,0
2017-01-26T06:03:27.166Z,0
2017-01-26T06:04:07.686Z,0
2017-01-26T06:04:48.237Z,0
2017-01-26T06:05:28.774Z,0
2017-01-26T06:06:09.303Z,0
2017-01-26T06:06:49.819Z,0
2017-01-26T06:07:30.346Z,0
2017-01-26T06:08:10.878Z,0
2017-01-26T06:08:51.407Z,0
2017-01-26T06:09:31.942Z,0
2017-01-26T06:10:12.471Z,0
2017-01-26T06:10:52.994Z,0
2017-01-26T06:11:33.528Z,0
2017-01-26T06:12:14.046Z,0
2017-01-26T06:12:54.583Z,0
2017-01-26T06:13:35.113Z,0
2017-01-26T06:14:15.641Z,0
2017-01-26T06:14:56.180Z,0
2017-01-26T06:15:36.710Z,0
2017-01-26T06:16:17.243Z,0
2017-01-26T06:16:57.765Z,0
2017-01-26T06:17:38.283Z,0
2017-01-26T06:18:18.810Z,0
2017-01-26T06:18:59.341Z,0
2017-01-26T06:19:39.868Z,0
2017-01-26T06:20:20.381Z,0
2017-01-26T06:21:00.904Z,0
2017-01-26T06:21:41.472Z,0
2017-01-26T06:22:21.999Z,0
2017-01-26T06:23:02.534Z,0
2017-01-26T06:23:43.061Z,0
2017-01-26T06:24:23.590Z,0
2017-01-26T06:25:04.122Z,0
2017-01-26T06:25:44.652Z,0
2017-01-26T06:26:25.195Z,0
2017-01-26T06:27:05.721Z,0
2017-01-26T06:27:46.251Z,0
2017-01-26T06:28:26.791Z,0
2017-01-26T06:29:07.322Z,0
2017-01-26T06:29:47.852Z,0
2017-01-26T06:30:28.373Z,0
2017-01-26T06:31:08.900Z,0
2017-01-26T06:31:49.440Z,0
2017-01-26T06:32:29.964Z,0
2017-01-26T06:33:10.501Z,0
2017-01-26T06:33:51.035Z,0
2017-01-26T06:34:31.567Z,0
2017-01-26T06:35:12.092Z,0
2017-01-26T06:35:52.615Z,0
2017-01-26T06:36:33.138Z,0
2017-01-26T06:37:13.660Z,0
2017-01-26T06:37:54.178Z,0
2017-01-26T06:38:34.707Z,0
2017-01-26T06:39:15.230Z,0
2017-01-26T06:39:55.767Z,0
2017-01-26T06:42:30.343Z,0
2017-01-26T06:43:10.869Z,0
2017-01-26T06:43:51.388Z,0
2017-01-26T06:44:31.923Z,0
2017-01-26T06:45:12.452Z,4
2017-01-26T06:45:52.978Z,4
2017-01-26T06:46:33.506Z,0
2017-01-26T06:47:14.037Z,0
2017-01-26T06:47:54.578Z,0
2017-01-26T06:48:35.133Z,4
2017-01-26T06:49:15.678Z,4
2017-01-26T06:49:56.217Z,4
2017-01-26T06:50:36.747Z,0
2017-01-26T06:51:17.259Z,4
2017-01-26T06:51:57.780Z,4
2017-01-26T06:52:38.297Z,4
2017-01-26T06:53:18.834Z,4
2017-01-26T06:53:59.356Z,4
2017-01-26T06:54:39.880Z,4
2017-01-26T06:55:20.407Z,4
2017-01-26T06:56:00.938Z,8
2017-01-26T06:56:41.462Z,8
2017-01-26T06:57:21.989Z,8
2017-01-26T06:58:02.522Z,12
2017-01-26T06:58:43.048Z,12
2017-01-26T06:59:23.582Z,12
2017-01-26T07:00:04.117Z,12
2017-01-26T07:00:44.647Z,12
2017-01-26T07:01:25.181Z,16
2017-01-26T07:02:05.710Z,16
2017-01-26T07:02:46.240Z,16
2017-01-26T07:03:26.767Z,20
2017-01-26T07:04:07.294Z,20
2017-01-26T07:04:47.830Z,20
2017-01-26T07:05:28.347Z,24
2017-01-26T07:06:08.869Z,24
2017-01-26T07:06:49.398Z,28
2017-01-26T07:07:29.936Z,28
2017-01-26T07:08:10.459Z,36
2017-01-26T07:08:50.981Z,36
2017-01-26T07:09:31.500Z,36
2017-01-26T07:10:12.015Z,40
2017-01-26T07:10:52.541Z,44
2017-01-26T07:11:33.059Z,48
2017-01-26T07:12:13.587Z,52
2017-01-26T07:12:54.119Z,56
2017-01-26T07:13:34.649Z,60
2017-01-26T07:14:15.170Z,64
2017-01-26T07:14:55.707Z,68
2017-01-26T07:15:36.237Z,68
2017-01-26T07:16:16.754Z,68
2017-01-26T07:16:57.284Z,72
2017-01-26T07:17:37.809Z,80
2017-01-26T07:18:18.337Z,80
2017-01-26T07:18:58.864Z,84
2017-01-26T07:19:39.399Z,88
2017-01-26T07:20:19.920Z,92
2017-01-26T07:21:00.448Z,100
2017-01-26T07:21:40.988Z,104
2017-01-26T07:22:21.519Z,108
2017-01-26T07:23:02.051Z,112
2017-01-26T07:23:42.579Z,120
2017-01-26T07:24:23.115Z,124
2017-01-26T07:25:03.650Z,128
2017-01-26T07:25:44.178Z,136
2017-01-26T07:26:24.708Z,148
2017-01-26T07:27:05.246Z,152
2017-01-26T07:27:45.760Z,160
2017-01-26T07:28:26.295Z,164
2017-01-26T07:29:06.822Z,172
2017-01-26T07:29:47.380Z,180
2017-01-26T07:30:27.982Z,188
2017-01-26T07:31:08.544Z,192
2017-01-26T07:31:49.071Z,200
2017-01-26T07:32:29.601Z,204
2017-01-26T07:33:10.122Z,220
2017-01-26T07:33:50.646Z,224
2017-01-26T07:34:31.174Z,240
2017-01-26T07:35:11.715Z,252
2017-01-26T07:35:52.228Z,248
2017-01-26T07:36:32.888Z,252
2017-01-26T07:37:13.501Z,256
2017-01-26T07:37:54.029Z,268
2017-01-26T07:38:34.561Z,268
2017-01-26T07:39:15.109Z,276
2017-01-26T07:39:55.710Z,296
2017-01-26T07:40:36.258Z,304
2017-01-26T07:41:16.774Z,328
2017-01-26T07:41:57.311Z,348
2017-01-26T07:42:37.848Z,352
2017-01-26T07:43:18.379Z,352
2017-01-26T07:43:58.907Z,364
2017-01-26T07:44:39.440Z,404
2017-01-26T07:45:19.972Z,412
2017-01-26T07:46:00.517Z,408
2017-01-26T07:46:41.045Z,404
2017-01-26T07:47:21.580Z,416
2017-01-26T07:48:02.109Z,420
2017-01-26T07:48:42.627Z,448
2017-01-26T07:49:23.164Z,456
2017-01-26T07:50:03.706Z,460
2017-01-26T07:50:44.239Z,508
2017-01-26T07:51:24.764Z,564
2017-01-26T07:52:05.300Z,564
2017-01-26T07:52:45.828Z,600
2017-01-26T07:53:26.359Z,620
2017-01-26T07:54:06.892Z,632
2017-01-26T07:54:47.423Z,664
2017-01-26T07:55:27.956Z,672
2017-01-26T07:56:08.493Z,684
2017-01-26T07:56:49.029Z,712
2017-01-26T07:57:29.562Z,808
2017-01-26T07:58:10.096Z,860
2017-01-26T07:58:50.616Z,832
2017-01-26T07:59:31.149Z,868
2017-01-26T08:00:11.683Z,960
2017-01-26T08:00:52.222Z,1020
2017-01-26T08:01:32.758Z,1056
2017-01-26T08:02:13.282Z,1004
2017-01-26T08:02:53.816Z,1040
2017-01-26T08:03:34.420Z,1060
2017-01-26T08:04:14.943Z,1080
2017-01-26T08:04:55.457Z,1120
2017-01-26T08:05:35.992Z,1224
2017-01-26T08:06:16.551Z,1252
2017-01-26T08:06:57.082Z,1348
2017-01-26T08:07:37.614Z,1320
2017-01-26T08:08:18.146Z,1368
2017-01-26T08:08:58.674Z,1360
2017-01-26T08:09:39.195Z,1304
2017-01-26T08:10:21.577Z,1344
2017-01-26T08:11:02.111Z,1372
2017-01-26T08:11:42.640Z,1436
2017-01-26T08:12:23.184Z,1404
2017-01-26T08:13:03.702Z,1368
2017-01-26T08:13:44.230Z,1356
2017-01-26T08:14:24.749Z,1372
2017-01-26T08:15:05.294Z,1476
2017-01-26T08:15:45.825Z,1488
2017-01-26T08:16:26.335Z,1504
2017-01-26T08:17:06.863Z,1604
2017-01-26T08:17:47.393Z,1572
2017-01-26T08:18:27.922Z,1616
2017-01-26T08:19:08.443Z,1652
2017-01-26T08:19:48.980Z,1724
2017-01-26T08:20:29.516Z,1684
2017-01-26T08:21:10.045Z,1704
2017-01-26T08:21:50.573Z,1748
2017-01-26T08:22:31.095Z,1800
2017-01-26T08:23:11.631Z,1872
2017-01-26T08:23:52.180Z,1936
2017-01-26T08:24:32.701Z,1944
2017-01-26T08:25:13.245Z,1756
2017-01-26T08:25:53.768Z,1760
2017-01-26T08:26:34.296Z,1776
2017-01-26T08:27:14.831Z,1656
2017-01-26T08:27:55.363Z,1668
2017-01-26T08:28:35.899Z,1732
2017-01-26T08:29:16.433Z,1872
2017-01-26T08:29:56.962Z,2044
2017-01-26T08:30:37.495Z,1912
2017-01-26T08:31:18.036Z,1960
2017-01-26T08:31:58.563Z,1872
2017-01-26T08:32:39.105Z,1828
2017-01-26T08:33:19.609Z,1784
2017-01-26T08:34:00.160Z,1852
2017-01-26T08:34:40.692Z,1912
2017-01-26T08:35:21.218Z,1976
2017-01-26T08:36:01.751Z,2096
2017-01-26T08:36:42.262Z,2092
2017-01-26T08:37:22.794Z,2008
2017-01-26T08:38:03.325Z,1900
2017-01-26T08:38:43.857Z,1852
2017-01-26T08:39:24.389Z,1748
2017-01-26T08:40:04.909Z,1832
2017-01-26T08:40:45.440Z,1864
2017-01-26T08:41:25.974Z,2060
2017-01-26T08:42:06.524Z,2152
2017-01-26T08:42:47.058Z,1996
2017-01-26T08:43:27.597Z,2032
2017-01-26T08:44:08.117Z,2048
2017-01-26T08:44:48.647Z,2108
2017-01-26T08:45:29.176Z,2144
2017-01-26T08:46:09.725Z,2052
2017-01-26T08:46:50.229Z,2148
2017-01-26T08:47:30.754Z,2160
2017-01-26T08:48:11.291Z,2216
2017-01-26T08:48:51.819Z,2308
2017-01-26T08:49:32.386Z,2168
2017-01-26T08:50:12.913Z,2312
2017-01-26T08:50:53.446Z,2332
2017-01-26T08:51:33.981Z,2432
2017-01-26T08:52:14.511Z,2476
2017-01-26T08:52:55.048Z,2284
2017-01-26T08:53:35.583Z,2632
2017-01-26T08:54:16.115Z,2880
2017-01-26T08:54:56.656Z,2844
2017-01-26T08:55:37.172Z,2840
2017-01-26T08:56:17.694Z,2840
2017-01-26T08:56:58.268Z,2880
2017-01-26T08:57:38.803Z,2940
2017-01-26T08:58:19.336Z,2636
2017-01-26T08:58:59.867Z,2908
2017-01-26T08:59:40.398Z,3216
2017-01-26T09:00:20.929Z,3040
2017-01-26T09:01:01.488Z,2908
2017-01-26T09:01:41.988Z,3028
2017-01-26T09:02:22.517Z,3240
2017-01-26T09:03:03.052Z,3156
2017-01-26T09:03:43.578Z,2708
2017-01-26T09:04:24.109Z,3492
2017-01-26T09:05:04.632Z,6540
2017-01-26T09:05:45.168Z,5104
2017-01-26T09:06:25.693Z,8328
2017-01-26T09:07:06.210Z,8692
2017-01-26T09:07:46.762Z,9128
2017-01-26T09:08:27.285Z,9264
2017-01-26T09:09:07.804Z,8432
2017-01-26T09:09:48.317Z,7820
2017-01-26T09:10:28.859Z,6996
2017-01-26T09:11:09.412Z,5876
2017-01-26T09:11:49.950Z,5664
2017-01-26T09:12:30.476Z,5288
2017-01-26T09:13:11.007Z,5248
2017-01-26T09:13:51.524Z,4744
2017-01-26T09:14:32.061Z,4392
2017-01-26T09:15:12.585Z,4364
2017-01-26T09:15:53.106Z,4376
2017-01-26T09:16:33.613Z,4352
2017-01-26T09:17:14.162Z,4120
2017-01-26T09:17:54.686Z,4236
2017-01-26T09:18:35.226Z,4368
2017-01-26T09:19:15.755Z,4624
2017-01-26T09:19:56.287Z,4808
2017-01-26T09:20:36.824Z,4640
2017-01-26T09:21:17.369Z,3756
2017-01-26T09:21:57.877Z,3916
2017-01-26T09:22:38.412Z,3592
2017-01-26T09:23:18.938Z,4720
2017-01-26T09:23:59.468Z,3864
2017-01-26T09:24:40.004Z,4648
2017-01-26T09:25:20.536Z,4864
2017-01-26T09:26:01.082Z,5444
2017-01-26T09:26:41.613Z,4952
2017-01-26T09:27:22.155Z,5264
2017-01-26T09:28:02.684Z,3512
2017-01-26T09:28:43.211Z,6168
2017-01-26T09:29:23.737Z,6496
2017-01-26T09:30:04.269Z,7684
2017-01-26T09:30:44.797Z,9484
2017-01-26T09:31:25.335Z,9924
2017-01-26T09:32:05.855Z,11520
2017-01-26T09:32:46.388Z,12532
2017-01-26T09:33:26.927Z,12452
2017-01-26T09:34:07.447Z,12764
2017-01-26T09:34:47.974Z,11648
2017-01-26T09:35:28.511Z,12536
2017-01-26T09:36:09.040Z,12588
2017-01-26T09:36:49.574Z,12768
2017-01-26T09:37:30.107Z,12980
2017-01-26T09:38:10.640Z,13792
2017-01-26T09:38:51.175Z,13728
2017-01-26T09:39:31.711Z,14144
2017-01-26T09:40:12.244Z,11312
2017-01-26T09:40:52.800Z,7772
2017-01-26T09:41:33.309Z,12056
2017-01-26T09:42:13.847Z,14400
2017-01-26T09:42:54.378Z,14720
2017-01-26T09:43:34.910Z,14752
2017-01-26T09:44:15.445Z,11648
2017-01-26T09:44:55.975Z,13952
2017-01-26T09:45:36.511Z,14048
2017-01-26T09:46:17.041Z,12588
2017-01-26T09:46:57.582Z,15072
2017-01-26T09:47:38.115Z,10200
2017-01-26T09:48:18.699Z,14624
2017-01-26T09:48:59.168Z,15424
2017-01-26T09:49:39.698Z,15936
2017-01-26T09:50:20.238Z,16544
2017-01-26T09:51:00.752Z,10444
2017-01-26T09:51:41.298Z,4348
2017-01-26T09:52:21.823Z,11328
2017-01-26T09:53:02.357Z,7376
2017-01-26T09:53:42.893Z,18592
2017-01-26T09:54:23.436Z,19040
2017-01-26T09:55:03.957Z,18240
2017-01-26T09:55:44.482Z,19232
2017-01-26T09:56:25.018Z,18624
2017-01-26T09:57:05.556Z,18048
2017-01-26T09:57:46.090Z,8960
2017-01-26T09:58:26.624Z,15968
2017-01-26T09:59:07.158Z,18976
2017-01-26T09:59:47.711Z,18912
2017-01-26T10:00:28.237Z,20000
2017-01-26T10:01:08.761Z,19488
2017-01-26T10:01:49.300Z,18720
2017-01-26T10:02:29.841Z,19488
2017-01-26T10:03:10.375Z,20960
2017-01-26T10:03:50.904Z,19200
2017-01-26T10:04:31.438Z,20896
2017-01-26T10:05:11.965Z,20960
2017-01-26T10:05:52.497Z,20960
2017-01-26T10:06:33.036Z,21952
2017-01-26T10:07:13.571Z,21440
2017-01-26T10:07:54.107Z,22880
2017-01-26T10:08:34.640Z,23328
2017-01-26T10:09:15.177Z,21440
2017-01-26T10:09:55.707Z,22720
2017-01-26T10:10:36.246Z,21408
2017-01-26T10:11:16.782Z,21536
2017-01-26T10:11:57.332Z,21088
2017-01-26T10:12:37.862Z,17280
2017-01-26T10:13:18.368Z,11024
2017-01-26T10:13:58.924Z,19296
2017-01-26T10:14:39.460Z,17728
2017-01-26T10:15:19.993Z,19872
2017-01-26T10:16:00.533Z,22208
2017-01-26T10:16:41.050Z,20128
2017-01-26T10:17:21.590Z,21216
2017-01-26T10:18:02.126Z,21696
2017-01-26T10:18:42.664Z,25472
2017-01-26T10:19:23.203Z,24224
2017-01-26T10:20:03.747Z,24256
2017-01-26T10:20:44.278Z,22944
2017-01-26T10:21:24.817Z,22752